createdAt,value
2023-05-14T00:02:13.538Z,86.57
2023-05-14T00:04:41.401Z,95.90
2023-05-14T00:07:09.194Z,94.90
2023-05-14T00:09:38.204Z,98.53
2023-05-14T00:12:06.306Z,100.60
2023-05-14T00:14:33.997Z,103.47
2023-05-14T00:17:01.692Z,105.57
2023-05-14T00:19:29.378Z,106.60
2023-05-14T00:21:57.048Z,110.10
2023-05-14T00:24:24.761Z,109.50
2023-05-14T00:26:53.763Z,112.90
2023-05-14T00:29:21.450Z,113.03
2023-05-14T00:31:49.304Z,115.72
2023-05-14T00:34:17.059Z,119.15
2023-05-14T00:36:44.709Z,121.40
2023-05-14T00:39:12.434Z,124.32
2023-05-14T00:41:40.166Z,124.70
2023-05-14T00:44:09.155Z,127.80
2023-05-14T00:46:36.931Z,129.77
2023-05-14T00:49:04.893Z,130.75
2023-05-14T00:51:32.571Z,130.70
2023-05-14T00:54:00.246Z,138.65
2023-05-14T00:56:27.984Z,139.00
2023-05-14T00:58:55.660Z,133.27
2023-05-14T01:01:24.761Z,137.30
2023-05-14T01:03:53.379Z,142.02
2023-05-14T01:06:26.330Z,142.82
2023-05-14T01:08:59.512Z,139.52
2023-05-14T01:11:31.088Z,140.80
2023-05-14T01:14:04.184Z,141.45
2023-05-14T01:16:34.324Z,141.70
2023-05-14T01:19:02.117Z,146.10
2023-05-14T01:21:40.779Z,143.07
2023-05-14T01:24:08.587Z,146.00
2023-05-14T01:26:36.801Z,150.52
2023-05-14T01:29:07.675Z,143.70
2023-05-14T01:31:35.718Z,148.23
2023-05-14T01:34:03.536Z,147.13
2023-05-14T01:36:31.191Z,148.07
2023-05-14T01:39:00.733Z,144.63
2023-05-14T01:41:28.423Z,146.73
2023-05-14T01:43:56.096Z,145.30
2023-05-14T01:46:24.983Z,146.43
2023-05-14T01:48:52.705Z,141.05
2023-05-14T01:51:20.491Z,141.18
2023-05-14T01:53:48.176Z,139.10
2023-05-14T01:56:17.325Z,140.63
2023-05-14T01:58:45.005Z,137.60
2023-05-14T02:01:12.714Z,138.48
2023-05-14T02:03:40.456Z,138.52
2023-05-14T02:06:08.412Z,136.20
2023-05-14T02:08:36.108Z,130.95
2023-05-14T02:11:03.861Z,128.60
2023-05-14T02:13:32.867Z,128.45
2023-05-14T02:16:00.589Z,124.30
2023-05-14T02:18:28.338Z,124.47
2023-05-14T02:20:57.373Z,120.85
2023-05-14T02:23:34.207Z,118.50
2023-05-14T02:26:09.486Z,115.55
2023-05-14T02:28:38.469Z,111.43
2023-05-14T02:31:06.247Z,106.97
2023-05-14T02:33:34.039Z,106.05
2023-05-14T02:36:01.808Z,105.47
2023-05-14T02:38:29.478Z,103.00
2023-05-14T02:40:57.632Z,101.40
2023-05-14T02:43:25.395Z,97.50
2023-05-14T02:45:54.507Z,94.55
2023-05-14T02:48:22.197Z,92.00
2023-05-14T02:50:51.370Z,91.93
2023-05-14T02:53:19.068Z,87.90
2023-05-14T02:55:46.762Z,86.80
2023-05-14T02:58:14.954Z,82.65
2023-05-14T03:00:42.668Z,80.18
2023-05-14T03:03:12.226Z,75.20
2023-05-14T03:05:40.465Z,73.78
2023-05-14T03:08:08.302Z,70.70
2023-05-14T03:10:36.011Z,70.32
2023-05-14T03:13:03.739Z,67.70
2023-05-14T03:15:31.438Z,63.83
2023-05-14T03:17:59.228Z,63.83
2023-05-14T03:20:28.342Z,62.78
2023-05-14T03:22:56.127Z,58.28
2023-05-14T03:25:23.852Z,57.03
2023-05-14T03:27:52.515Z,56.75
2023-05-14T03:30:20.400Z,54.58
2023-05-14T03:32:49.496Z,52.85
2023-05-14T03:35:17.367Z,52.55
2023-05-14T03:37:46.404Z,50.67
2023-05-14T03:40:14.096Z,47.90
2023-05-14T03:42:44.310Z,47.47
2023-05-14T03:45:11.996Z,45.38
2023-05-14T03:47:39.771Z,44.28
2023-05-14T03:50:08.909Z,43.08
2023-05-14T03:52:36.692Z,41.50
2023-05-14T03:55:06.366Z,39.85
2023-05-14T03:57:34.052Z,39.45
2023-05-14T04:00:03.433Z,39.15
2023-05-14T04:02:44.392Z,36.85
2023-05-14T04:05:12.313Z,35.45
2023-05-14T04:07:40.008Z,35.45
2023-05-14T04:10:10.316Z,34.35
2023-05-14T04:12:38.218Z,32.83
2023-05-14T04:15:08.002Z,31.95
2023-05-14T04:17:35.790Z,30.17
2023-05-14T04:20:03.629Z,28.60
2023-05-14T04:22:31.980Z,28.38
2023-05-14T04:24:59.641Z,27.48
2023-05-14T04:27:29.468Z,26.90
2023-05-14T04:29:57.136Z,25.42
2023-05-14T04:32:24.884Z,24.55
2023-05-14T04:34:52.564Z,23.55
2023-05-14T04:37:20.224Z,22.95
2023-05-14T04:39:47.904Z,21.60
2023-05-14T04:42:15.599Z,21.10
2023-05-14T04:44:44.592Z,20.35
2023-05-14T04:47:12.453Z,20.95
2023-05-14T04:49:40.116Z,19.60
2023-05-14T04:52:07.795Z,17.90
2023-05-14T04:54:35.487Z,18.45
2023-05-14T04:57:03.355Z,17.70
2023-05-14T04:59:31.127Z,16.55
2023-05-14T05:02:00.135Z,16.50
2023-05-14T05:04:28.286Z,16.13
2023-05-14T05:06:55.956Z,15.45
2023-05-14T05:09:23.611Z,14.45
2023-05-14T05:11:51.273Z,14.15
2023-05-14T05:14:18.930Z,14.10
2023-05-14T05:16:46.928Z,12.95
2023-05-14T05:19:15.974Z,13.55
2023-05-14T05:21:43.716Z,12.20
2023-05-14T05:24:11.451Z,11.80
2023-05-14T05:26:39.116Z,11.98
2023-05-14T05:29:06.796Z,10.85
2023-05-14T05:31:34.550Z,10.00
2023-05-14T05:34:02.256Z,10.30
2023-05-14T05:36:31.940Z,10.00
2023-05-14T05:38:59.600Z,10.75
2023-05-14T05:41:27.479Z,9.65
2023-05-14T05:43:55.161Z,9.50
2023-05-14T05:46:22.865Z,8.45
2023-05-14T05:48:50.598Z,8.63
2023-05-14T05:51:18.267Z,8.05
2023-05-14T05:53:47.317Z,8.70
2023-05-14T05:56:14.972Z,8.07
2023-05-14T05:58:42.663Z,7.60
2023-05-14T06:01:10.474Z,7.85
2023-05-14T06:03:38.120Z,7.82
2023-05-14T06:06:06.404Z,7.05
2023-05-14T06:08:34.073Z,6.43
2023-05-14T06:11:03.153Z,6.50
2023-05-14T06:13:30.857Z,6.15
2023-05-14T06:15:58.577Z,6.38
2023-05-14T06:18:26.467Z,6.15
2023-05-14T06:20:56.599Z,6.13
2023-05-14T06:23:24.310Z,5.70
2023-05-14T06:25:52.167Z,5.70
2023-05-14T06:28:21.230Z,5.63
2023-05-14T06:30:50.877Z,5.07
2023-05-14T06:33:20.573Z,5.60
2023-05-14T06:35:48.498Z,4.88
2023-05-14T06:38:16.179Z,4.90
2023-05-14T06:40:43.942Z,4.82
2023-05-14T06:43:11.652Z,4.78
2023-05-14T06:45:40.636Z,4.78
2023-05-14T06:48:10.059Z,4.90
2023-05-14T06:50:37.876Z,4.55
2023-05-14T06:53:05.642Z,4.43
2023-05-14T06:55:33.423Z,4.10
2023-05-14T06:58:01.121Z,4.20
2023-05-14T07:00:29.102Z,4.20
2023-05-14T07:02:58.151Z,4.10
2023-05-14T07:05:26.046Z,4.20
2023-05-14T07:07:53.722Z,3.78
2023-05-14T07:10:21.512Z,3.88
2023-05-14T07:12:49.873Z,3.63
2023-05-14T07:15:17.633Z,3.60
2023-05-14T07:17:45.524Z,3.25
2023-05-14T07:20:14.853Z,3.70
2023-05-14T07:22:42.547Z,3.72
2023-05-14T07:25:10.595Z,3.60
2023-05-14T07:27:38.251Z,3.15
2023-05-14T07:30:07.174Z,3.50
2023-05-14T07:32:34.942Z,3.40
2023-05-14T07:35:02.718Z,3.10
2023-05-14T07:37:31.750Z,3.42
2023-05-14T07:39:59.443Z,3.20
2023-05-14T07:42:35.968Z,3.00
2023-05-14T07:45:05.594Z,3.00
2023-05-14T07:47:33.518Z,3.20
2023-05-14T07:50:01.370Z,2.88
2023-05-14T07:52:29.128Z,3.10
2023-05-14T07:54:58.198Z,3.00
2023-05-14T07:57:26.239Z,2.70
2023-05-14T07:59:53.992Z,2.97
2023-05-14T08:02:21.800Z,3.10
2023-05-14T08:04:49.615Z,3.75
2023-05-14T08:07:17.292Z,3.63
2023-05-14T08:09:45.020Z,3.30
2023-05-14T08:12:14.946Z,3.22
2023-05-14T08:14:42.650Z,3.28
2023-05-14T08:17:10.495Z,3.22
2023-05-14T08:19:38.267Z,3.35
2023-05-14T08:22:06.008Z,2.97
2023-05-14T08:24:33.730Z,3.17
2023-05-14T08:27:02.348Z,3.78
2023-05-14T08:29:31.404Z,3.63
2023-05-14T08:32:00.342Z,3.75
2023-05-14T08:34:31.460Z,3.20
2023-05-14T08:36:59.482Z,4.10
2023-05-14T08:39:27.214Z,3.17
2023-05-14T08:41:54.917Z,4.20
2023-05-14T08:44:26.819Z,3.75
2023-05-14T08:46:55.999Z,3.90
2023-05-14T08:49:29.147Z,4.05
2023-05-14T08:51:56.849Z,3.90
2023-05-14T08:54:26.236Z,3.95
2023-05-14T08:56:54.102Z,4.40
2023-05-14T08:59:21.775Z,3.95
2023-05-14T09:01:50.312Z,3.42
2023-05-14T09:04:22.076Z,5.25
2023-05-14T09:06:50.371Z,4.10
2023-05-14T09:09:18.222Z,2.80
2023-05-14T09:11:46.972Z,3.10
2023-05-14T09:14:14.665Z,2.85
2023-05-14T09:16:43.051Z,2.90
2023-05-14T09:19:10.818Z,7.68
2023-05-14T09:21:40.163Z,3.33
2023-05-14T09:24:08.640Z,3.30
2023-05-14T09:26:36.490Z,3.28
2023-05-14T09:29:04.212Z,2.97
2023-05-14T09:31:32.569Z,3.30
2023-05-14T09:34:00.494Z,2.63
2023-05-14T09:36:28.874Z,2.83
2023-05-14T09:38:58.802Z,2.80
2023-05-14T09:41:26.644Z,4.07
2023-05-14T09:43:54.577Z,9.73
2023-05-14T09:46:22.576Z,6.18
2023-05-14T09:48:50.286Z,5.40
2023-05-14T09:51:18.112Z,4.55
2023-05-14T09:53:45.826Z,4.18
2023-05-14T09:56:14.837Z,3.55
2023-05-14T09:58:42.626Z,3.47
2023-05-14T10:01:10.526Z,2.85
2023-05-14T10:03:38.225Z,2.78
2023-05-14T10:06:06.668Z,2.53
2023-05-14T10:08:35.253Z,2.50
2023-05-14T10:11:04.285Z,2.40
2023-05-14T10:13:37.440Z,2.75
2023-05-14T10:16:07.486Z,2.92
2023-05-14T10:18:37.968Z,3.10
2023-05-14T10:21:06.672Z,2.80
2023-05-14T10:23:34.482Z,2.72
2023-05-14T10:26:02.215Z,2.90
2023-05-14T10:28:29.970Z,2.60
2023-05-14T10:30:59.674Z,2.22
2023-05-14T10:33:27.675Z,2.10
2023-05-14T10:36:00.954Z,2.75
2023-05-14T10:38:29.378Z,2.60
2023-05-14T10:40:58.826Z,2.65
2023-05-14T10:43:27.447Z,2.33
2023-05-14T10:45:55.132Z,2.38
2023-05-14T10:48:24.551Z,2.90
2023-05-14T10:50:52.380Z,2.50
2023-05-14T10:53:21.062Z,2.58
2023-05-14T10:55:48.777Z,2.70
2023-05-14T10:58:16.519Z,18.20
2023-05-14T11:00:44.385Z,3.05
2023-05-14T11:03:13.511Z,3.15
2023-05-14T11:05:42.736Z,3.15
2023-05-14T11:08:10.477Z,2.88
2023-05-14T11:10:38.847Z,2.92
2023-05-14T11:13:06.526Z,3.47
2023-05-14T11:15:34.453Z,5.03
2023-05-14T11:18:02.164Z,3.20
2023-05-14T11:20:29.904Z,3.50
2023-05-14T11:22:58.890Z,2.85
2023-05-14T11:25:26.575Z,3.65
2023-05-14T11:27:58.173Z,3.92
2023-05-14T11:30:26.030Z,3.58
2023-05-14T11:32:54.274Z,3.78
2023-05-14T11:35:22.008Z,2.65
2023-05-14T11:37:53.025Z,2.95
2023-05-14T11:40:22.676Z,3.75
2023-05-14T11:42:52.076Z,3.28
2023-05-14T11:45:25.942Z,2.88
2023-05-14T11:47:53.659Z,3.63
2023-05-14T11:50:22.963Z,2.88
2023-05-14T11:52:50.975Z,2.80
2023-05-14T11:55:18.850Z,2.53
2023-05-14T11:57:48.955Z,2.50
2023-05-14T12:00:21.560Z,2.55
2023-05-14T12:02:49.809Z,2.70
2023-05-14T12:05:17.911Z,2.75
2023-05-14T12:07:45.991Z,2.88
2023-05-14T12:10:13.775Z,3.80
2023-05-14T12:12:41.531Z,4.03
2023-05-14T12:15:14.180Z,2.97
2023-05-14T12:17:42.019Z,2.80
2023-05-14T12:20:12.217Z,2.83
2023-05-14T12:22:40.381Z,3.63
2023-05-14T12:25:12.254Z,3.08
2023-05-14T12:27:40.152Z,2.92
2023-05-14T12:32:41.776Z,2.80
2023-05-14T12:35:09.868Z,3.10
2023-05-14T12:37:39.811Z,2.60
2023-05-14T12:40:09.360Z,2.83
2023-05-14T12:42:37.579Z,2.80
2023-05-14T12:45:08.015Z,3.17
2023-05-14T12:47:36.025Z,2.83
2023-05-14T12:50:05.962Z,2.70
2023-05-14T12:52:38.479Z,2.70
2023-05-14T12:55:08.662Z,3.05
2023-05-14T12:57:36.393Z,3.15
2023-05-14T13:00:06.620Z,3.25
2023-05-14T13:02:42.668Z,2.85
2023-05-14T13:05:12.510Z,3.28
2023-05-14T13:07:40.289Z,2.83
2023-05-14T13:10:08.975Z,4.60
2023-05-14T13:12:36.754Z,5.25
2023-05-14T13:15:04.912Z,3.90
2023-05-14T13:17:32.687Z,3.40
2023-05-14T13:20:00.623Z,3.10
2023-05-14T13:22:29.693Z,3.08
2023-05-14T13:24:57.582Z,2.92
2023-05-14T13:27:25.618Z,2.80
2023-05-14T13:29:53.368Z,3.80
2023-05-14T13:32:21.105Z,7.18
2023-05-14T13:34:48.863Z,2.70
2023-05-14T13:37:16.619Z,3.38
2023-05-14T13:39:45.625Z,3.63
2023-05-14T13:42:13.359Z,3.30
2023-05-14T13:44:41.131Z,3.22
2023-05-14T13:47:08.843Z,3.00
2023-05-14T13:49:36.553Z,3.00
2023-05-14T13:52:04.579Z,2.55
2023-05-14T13:54:32.348Z,2.50
2023-05-14T13:57:01.349Z,2.60
2023-05-14T13:59:29.043Z,2.70
2023-05-14T14:01:56.764Z,2.90
2023-05-14T14:04:25.648Z,2.83
2023-05-14T14:06:53.333Z,3.40
2023-05-14T14:09:21.145Z,3.38
2023-05-14T14:11:48.935Z,3.00
2023-05-14T14:14:18.083Z,2.75
2023-05-14T14:16:45.816Z,3.63
2023-05-14T14:19:14.926Z,3.60
2023-05-14T14:21:43.893Z,3.45
2023-05-14T14:24:11.558Z,3.42
2023-05-14T14:26:39.241Z,4.40
2023-05-14T14:29:06.972Z,3.50
2023-05-14T14:31:36.818Z,3.42
2023-05-14T14:34:04.580Z,3.50
2023-05-14T14:36:32.474Z,3.35
2023-05-14T14:39:00.334Z,3.20
2023-05-14T14:41:28.279Z,2.65
2023-05-14T14:43:55.997Z,3.35
2023-05-14T14:46:23.777Z,3.90
2023-05-14T14:48:52.871Z,3.50
2023-05-14T14:51:20.635Z,3.13
2023-05-14T14:53:48.366Z,3.22
2023-05-14T14:56:16.249Z,3.42
2023-05-14T14:58:45.257Z,3.08
2023-05-14T15:01:13.093Z,3.63
2023-05-14T15:03:41.074Z,3.42
2023-05-14T15:06:10.317Z,3.60
2023-05-14T15:08:38.052Z,3.70
2023-05-14T15:11:06.561Z,3.85
2023-05-14T15:13:34.332Z,3.80
2023-05-14T15:16:02.066Z,4.00
2023-05-14T15:18:29.760Z,4.22
2023-05-14T15:20:57.569Z,4.30
2023-05-14T15:23:26.586Z,4.85
2023-05-14T15:25:54.404Z,4.45
2023-05-14T15:28:22.148Z,4.05
2023-05-14T15:30:49.881Z,5.00
2023-05-14T15:33:19.302Z,4.78
2023-05-14T15:35:47.201Z,5.38
2023-05-14T15:38:14.889Z,4.80
2023-05-14T15:40:44.029Z,5.82
2023-05-14T15:43:11.700Z,5.07
2023-05-14T15:45:39.662Z,5.07
2023-05-14T15:48:07.582Z,5.00
2023-05-14T15:50:35.261Z,5.07
2023-05-14T15:53:03.076Z,4.57
2023-05-14T15:55:30.951Z,4.78
2023-05-14T15:57:59.985Z,4.38
2023-05-14T16:00:27.634Z,4.20
2023-05-14T16:02:55.397Z,4.35
2023-05-14T16:05:23.173Z,4.13
2023-05-14T16:07:50.996Z,4.10
2023-05-14T16:10:19.456Z,4.35
2023-05-14T16:12:47.208Z,3.88
2023-05-14T16:15:16.252Z,4.32
2023-05-14T16:17:44.010Z,3.90
2023-05-14T16:20:13.038Z,4.65
2023-05-14T16:22:40.738Z,4.45
2023-05-14T16:25:09.077Z,4.15
2023-05-14T16:27:36.783Z,4.43
2023-05-14T16:30:05.098Z,4.07
2023-05-14T16:32:34.112Z,3.83
2023-05-14T16:35:02.714Z,4.10
2023-05-14T16:37:30.472Z,3.75
2023-05-14T16:39:58.184Z,4.18
2023-05-14T16:42:26.181Z,4.10
2023-05-14T16:44:53.870Z,4.10
2023-05-14T16:47:21.826Z,3.88
2023-05-14T16:49:50.842Z,3.83
2023-05-14T16:52:18.695Z,4.13
2023-05-14T16:54:46.411Z,3.60
2023-05-14T16:57:14.142Z,3.85
2023-05-14T16:59:41.859Z,3.97
2023-05-14T17:02:10.024Z,4.15
2023-05-14T17:04:38.774Z,3.95
2023-05-14T17:07:07.978Z,3.80
2023-05-14T17:09:35.850Z,3.35
2023-05-14T17:12:03.531Z,3.38
2023-05-14T17:14:31.661Z,3.40
2023-05-14T17:16:59.427Z,3.50
2023-05-14T17:19:27.106Z,3.78
2023-05-14T17:21:54.797Z,3.58
2023-05-14T17:24:23.907Z,3.63
2023-05-14T17:26:51.600Z,3.38
2023-05-14T17:29:19.323Z,3.47
2023-05-14T17:31:48.256Z,3.30
2023-05-14T17:34:17.585Z,3.35
2023-05-14T17:36:45.349Z,3.35
2023-05-14T17:39:13.074Z,3.50
2023-05-14T17:41:42.641Z,3.45
2023-05-14T17:44:12.702Z,3.13
2023-05-14T17:46:41.487Z,3.30
2023-05-14T17:49:30.627Z,2.97
2023-05-14T17:51:58.414Z,3.20
2023-05-14T17:54:26.093Z,3.25
2023-05-14T17:56:55.150Z,3.03
2023-05-14T17:59:24.266Z,3.42
2023-05-14T18:01:52.211Z,2.88
2023-05-14T18:04:19.923Z,3.35
2023-05-14T18:06:47.635Z,3.45
2023-05-14T18:09:15.360Z,3.40
2023-05-14T18:11:43.063Z,3.50
2023-05-14T18:14:12.123Z,2.80
2023-05-14T18:16:39.904Z,2.95
2023-05-14T18:19:07.664Z,3.00
2023-05-14T18:21:35.487Z,3.28
2023-05-14T18:24:03.713Z,3.03
2023-05-14T18:26:34.133Z,3.30
2023-05-14T18:29:02.126Z,3.05
2023-05-14T18:31:31.304Z,3.38
2023-05-14T18:33:59.117Z,2.95
2023-05-14T18:36:26.810Z,2.60
2023-05-14T18:38:54.508Z,2.88
2023-05-14T18:41:22.333Z,3.30
2023-05-14T18:43:50.087Z,2.95
2023-05-14T18:46:18.075Z,2.70
2023-05-14T18:48:47.187Z,3.00
2023-05-14T18:51:14.864Z,2.95
2023-05-14T18:53:42.610Z,3.03
2023-05-14T18:56:10.437Z,2.83
2023-05-14T18:58:38.131Z,3.13
2023-05-14T19:01:05.866Z,2.53
2023-05-14T19:03:34.787Z,3.03
2023-05-14T19:06:03.925Z,2.80
2023-05-14T19:08:31.623Z,3.10
2023-05-14T19:10:59.305Z,3.35
2023-05-14T19:13:28.435Z,2.70
2023-05-14T19:15:56.214Z,3.00
2023-05-14T19:18:23.953Z,3.05
2023-05-14T19:20:51.852Z,2.85
2023-05-14T19:23:20.883Z,3.05
2023-05-14T19:25:48.567Z,2.80
2023-05-14T19:28:16.500Z,2.63
2023-05-14T19:30:44.217Z,2.50
2023-05-14T19:33:11.969Z,2.75
2023-05-14T19:35:39.753Z,2.70
2023-05-14T19:38:09.072Z,2.47
2023-05-14T19:40:38.096Z,2.83
2023-05-14T19:43:07.762Z,2.65
2023-05-14T19:45:38.771Z,2.72
2023-05-14T19:48:06.928Z,2.75
2023-05-14T19:50:36.710Z,2.47
2023-05-14T19:53:04.558Z,2.70
2023-05-14T19:55:32.274Z,2.65
2023-05-14T19:58:01.273Z,2.90
2023-05-14T20:00:28.966Z,2.88
2023-05-14T20:02:59.349Z,2.58
2023-05-14T20:05:27.481Z,2.72
2023-05-14T20:07:55.641Z,2.75
2023-05-14T20:10:24.165Z,2.40
2023-05-14T20:12:52.024Z,2.58
2023-05-14T20:15:21.374Z,2.60
2023-05-14T20:17:49.172Z,2.50
2023-05-14T20:20:16.961Z,2.60
2023-05-14T20:22:44.665Z,2.72
2023-05-14T20:25:12.377Z,2.50
2023-05-14T20:27:41.086Z,2.50
2023-05-14T20:30:09.570Z,2.72
2023-05-14T20:32:38.634Z,2.15
2023-05-14T20:35:07.359Z,2.60
2023-05-14T20:37:35.070Z,2.45
2023-05-14T20:40:04.751Z,2.50
2023-05-14T20:42:32.494Z,2.38
2023-05-14T20:45:00.282Z,2.58
2023-05-14T20:47:30.436Z,2.58
2023-05-14T20:49:59.523Z,2.40
2023-05-14T20:52:27.221Z,2.50
2023-05-14T20:54:54.902Z,2.42
2023-05-14T20:57:22.660Z,2.50
2023-05-14T20:59:50.378Z,2.40
2023-05-14T21:02:18.188Z,2.60
2023-05-14T21:04:45.979Z,2.20
2023-05-14T21:07:15.077Z,2.10
2023-05-14T21:09:43.820Z,2.22
2023-05-14T21:12:11.714Z,2.38
2023-05-14T21:14:39.390Z,2.17
2023-05-14T21:17:07.096Z,2.22
2023-05-14T21:19:34.749Z,2.30
2023-05-14T21:22:02.428Z,2.20
2023-05-14T21:24:31.442Z,2.50
2023-05-14T21:26:59.273Z,2.40
2023-05-14T21:29:27.004Z,2.40
2023-05-14T21:31:54.732Z,2.30
2023-05-14T21:34:22.448Z,2.40
2023-05-14T21:36:50.119Z,2.55
2023-05-14T21:39:17.794Z,2.20
2023-05-14T21:41:46.816Z,2.47
2023-05-14T21:44:14.483Z,2.30
2023-05-14T21:46:42.257Z,2.25
2023-05-14T21:49:09.938Z,2.45
2023-05-14T21:51:37.646Z,2.15
2023-05-14T21:54:05.686Z,1.92
2023-05-14T21:56:33.378Z,2.33
2023-05-14T21:59:02.389Z,2.25
2023-05-14T22:01:30.079Z,2.17
2023-05-14T22:03:58.127Z,2.20
2023-05-14T22:06:26.085Z,2.70
2023-05-14T22:08:53.798Z,2.30
2023-05-14T22:11:21.739Z,2.38
2023-05-14T22:13:49.418Z,1.88
2023-05-14T22:16:18.437Z,2.30
2023-05-14T22:18:47.080Z,2.20
2023-05-14T22:21:14.919Z,2.17
2023-05-14T22:23:42.590Z,2.10
2023-05-14T22:26:10.396Z,2.00
2023-05-14T22:28:42.702Z,2.10
2023-05-14T22:31:10.609Z,2.20
2023-05-14T22:33:39.689Z,2.03
2023-05-14T22:36:07.859Z,2.10
2023-05-14T22:38:35.633Z,1.88
2023-05-14T22:41:03.310Z,2.30
2023-05-14T22:43:31.004Z,2.13
2023-05-14T22:45:58.716Z,1.90
2023-05-14T22:48:26.377Z,2.00
2023-05-14T22:50:55.377Z,2.20
2023-05-14T22:53:24.390Z,2.20
2023-05-14T22:55:52.921Z,1.90
2023-05-14T22:58:21.026Z,2.20
2023-05-14T23:00:48.738Z,2.10
2023-05-14T23:03:16.435Z,2.10
2023-05-14T23:05:44.116Z,2.13
2023-05-14T23:08:13.199Z,2.35
2023-05-14T23:10:40.896Z,2.30
2023-05-14T23:13:08.587Z,1.80
2023-05-14T23:15:36.282Z,2.20
2023-05-14T23:18:04.195Z,1.98
2023-05-14T23:20:31.912Z,2.05
2023-05-14T23:22:59.607Z,2.00
2023-05-14T23:25:28.619Z,2.20
2023-05-14T23:27:56.276Z,2.00
2023-05-14T23:30:23.949Z,2.00
2023-05-14T23:32:51.733Z,2.22
2023-05-14T23:35:19.444Z,2.05
2023-05-14T23:37:49.395Z,2.20
2023-05-14T23:40:17.314Z,2.10
2023-05-14T23:42:46.446Z,2.05
2023-05-14T23:45:14.297Z,1.98
2023-05-14T23:47:42.071Z,1.80
2023-05-14T23:50:09.948Z,2.13
2023-05-14T23:52:37.598Z,1.90
2023-05-14T23:55:06.367Z,2.00
2023-05-14T23:57:34.052Z,2.00
